sensor_id;sensor_type;location;lat;lon;timestamp;P1;P2;P0
34240;PMS7003;20503;50.200;19.508;2024-01-15T00:00:01;18;7;5
34240;PMS7003;20503;50.200;19.508;2024-01-15T00:01:06;14;10;7
34240;PMS7003;20503;50.200;19.508;2024-01-15T00:02:13;14;10;7
34240;PMS7003;20503;50.200;19.508;2024-01-15T00:03:14;17;10;7
34240;PMS7003;20503;50.200;19.508;2024-01-15T00:04:15;17;10;7
34240;PMS7003;20503;50.200;19.508;2024-01-15T00:05:17;16;10;7
34240;PMS7003;20503;50.200;19.508;2024-01-15T00:06:18;13;10;6
34240;PMS7003;20503;50.200;19.508;2024-01-15T00:07:21;13;10;6
34240;PMS7003;20503;50.200;19.508;2024-01-15T00:08:22;23;9;6
34240;PMS7003;20503;50.200;19.508;2024-01-15T00:09:23;23;9;6
34240;PMS7003;20503;50.200;19.508;2024-01-15T00:10:24;19;9;6
34240;PMS7003;20503;50.200;19.508;2024-01-15T00:11:25;19;9;6
34240;PMS7003;20503;50.200;19.508;2024-01-15T00:12:27;14;9;5
34240;PMS7003;20503;50.200;19.508;2024-01-15T00:13:29;14;9;5
34240;PMS7003;20503;50.200;19.508;2024-01-15T00:14:30;15;8;5
34240;PMS7003;20503;50.200;19.508;2024-01-15T00:15:31;14;8;5
34240;PMS7003;20503;50.200;19.508;2024-01-15T00:16:33;14;8;5
34240;PMS7003;20503;50.200;19.508;2024-01-15T00:17:34;14;10;7
34240;PMS7003;20503;50.200;19.508;2024-01-15T00:18:35;14;10;7
34240;PMS7003;20503;50.200;19.508;2024-01-15T00:19:36;14;8;6
34240;PMS7003;20503;50.200;19.508;2024-01-15T00:20:54;12;9;6
34240;PMS7003;20503;50.200;19.508;2024-01-15T00:21:57;15;8;5
34240;PMS7003;20503;50.200;19.508;2024-01-15T00:22:59;15;8;5
34240;PMS7003;20503;50.200;19.508;2024-01-15T00:24:00;13;8;6
34240;PMS7003;20503;50.200;19.508;2024-01-15T00:25:02;9;7;5
34240;PMS7003;20503;50.200;19.508;2024-01-15T00:26:04;9;7;5
34240;PMS7003;20503;50.200;19.508;2024-01-15T00:27:05;13;8;5
34240;PMS7003;20503;50.200;19.508;2024-01-15T00:28:06;13;8;5
34240;PMS7003;20503;50.200;19.508;2024-01-15T00:29:08;12;7;6
34240;PMS7003;20503;50.200;19.508;2024-01-15T00:30:10;12;7;5
34240;PMS7003;20503;50.200;19.508;2024-01-15T00:31:12;12;7;5
34240;PMS7003;20503;50.200;19.508;2024-01-15T00:32:14;10;7;4
34240;PMS7003;20503;50.200;19.508;2024-01-15T00:33:16;10;7;4
34240;PMS7003;20503;50.200;19.508;2024-01-15T00:34:17;13;9;6
34240;PMS7003;20503;50.200;19.508;2024-01-15T00:35:19;13;9;6
34240;PMS7003;20503;50.200;19.508;2024-01-15T00:36:20;11;8;6
34240;PMS7003;20503;50.200;19.508;2024-01-15T00:37:22;11;8;6
34240;PMS7003;20503;50.200;19.508;2024-01-15T00:38:24;13;7;5
34240;PMS7003;20503;50.200;19.508;2024-01-15T00:39:26;13;7;5
34240;PMS7003;20503;50.200;19.508;2024-01-15T00:40:28;11;8;5
34240;PMS7003;20503;50.200;19.508;2024-01-15T00:41:30;13;7;5
34240;PMS7003;20503;50.200;19.508;2024-01-15T00:42:32;13;8;4
34240;PMS7003;20503;50.200;19.508;2024-01-15T00:43:33;11;8;5
34240;PMS7003;20503;50.200;19.508;2024-01-15T00:44:35;11;7;4
34240;PMS7003;20503;50.200;19.508;2024-01-15T00:45:36;11;7;4
34240;PMS7003;20503;50.200;19.508;2024-01-15T00:46:42;11;6;4
34240;PMS7003;20503;50.200;19.508;2024-01-15T00:47:47;13;8;5
34240;PMS7003;20503;50.200;19.508;2024-01-15T00:48:49;13;8;5
34240;PMS7003;20503;50.200;19.508;2024-01-15T00:49:50;10;6;5
34240;PMS7003;20503;50.200;19.508;2024-01-15T00:50:51;10;6;5
34240;PMS7003;20503;50.200;19.508;2024-01-15T00:51:55;11;7;5
34240;PMS7003;20503;50.200;19.508;2024-01-15T00:52:56;13;6;4
34240;PMS7003;20503;50.200;19.508;2024-01-15T00:53:58;13;6;4
34240;PMS7003;20503;50.200;19.508;2024-01-15T00:55:01;12;6;5
34240;PMS7003;20503;50.200;19.508;2024-01-15T00:56:03;12;6;5
34240;PMS7003;20503;50.200;19.508;2024-01-15T00:57:04;9;7;4
34240;PMS7003;20503;50.200;19.508;2024-01-15T00:58:06;9;7;4
34240;PMS7003;20503;50.200;19.508;2024-01-15T00:59:21;12;8;4
34240;PMS7003;20503;50.200;19.508;2024-01-15T01:00:23;11;7;4
34240;PMS7003;20503;50.200;19.508;2024-01-15T01:01:25;8;7;5
34240;PMS7003;20503;50.200;19.508;2024-01-15T01:02:26;8;7;5
34240;PMS7003;20503;50.200;19.508;2024-01-15T01:03:28;8;5;4
34240;PMS7003;20503;50.200;19.508;2024-01-15T01:04:31;9;5;3
34240;PMS7003;20503;50.200;19.508;2024-01-15T01:05:51;11;6;4
34240;PMS7003;20503;50.200;19.508;2024-01-15T01:06:52;12;6;5
34240;PMS7003;20503;50.200;19.508;2024-01-15T01:07:53;12;6;4
34240;PMS7003;20503;50.200;19.508;2024-01-15T01:08:55;12;6;4
34240;PMS7003;20503;50.200;19.508;2024-01-15T01:09:56;8;5;4
34240;PMS7003;20503;50.200;19.508;2024-01-15T01:10:57;5;5;3
34240;PMS7003;20503;50.200;19.508;2024-01-15T01:11:58;9;5;3
34240;PMS7003;20503;50.200;19.508;2024-01-15T01:12:59;9;5;3
34240;PMS7003;20503;50.200;19.508;2024-01-15T01:14:01;10;6;3
34240;PMS7003;20503;50.200;19.508;2024-01-15T01:15:02;10;6;3
34240;PMS7003;20503;50.200;19.508;2024-01-15T01:16:17;12;7;4
34240;PMS7003;20503;50.200;19.508;2024-01-15T01:17:18;12;5;3
34240;PMS7003;20503;50.200;19.508;2024-01-15T01:18:20;12;5;3
34240;PMS7003;20503;50.200;19.508;2024-01-15T01:19:21;7;5;3
34240;PMS7003;20503;50.200;19.508;2024-01-15T01:20:23;12;6;3
34240;PMS7003;20503;50.200;19.508;2024-01-15T01:21:24;11;6;4
34240;PMS7003;20503;50.200;19.508;2024-01-15T01:22:26;11;6;4
34240;PMS7003;20503;50.200;19.508;2024-01-15T01:23:36;7;6;4
34240;PMS7003;20503;50.200;19.508;2024-01-15T01:24:38;7;6;4
34240;PMS7003;20503;50.200;19.508;2024-01-15T01:25:39;9;5;3
34240;PMS7003;20503;50.200;19.508;2024-01-15T01:26:40;9;5;3
34240;PMS7003;20503;50.200;19.508;2024-01-15T01:27:41;8;5;3
34240;PMS7003;20503;50.200;19.508;2024-01-15T01:28:43;11;6;4
34240;PMS7003;20503;50.200;19.508;2024-01-15T01:29:48;6;5;3
34240;PMS7003;20503;50.200;19.508;2024-01-15T01:31:07;9;5;3
34240;PMS7003;20503;50.200;19.508;2024-01-15T01:32:15;10;6;4
34240;PMS7003;20503;50.200;19.508;2024-01-15T01:33:16;10;6;3
34240;PMS7003;20503;50.200;19.508;2024-01-15T01:34:22;10;5;3
34240;PMS7003;20503;50.200;19.508;2024-01-15T01:35:23;10;5;3
34240;PMS7003;20503;50.200;19.508;2024-01-15T01:36:51;7;4;3
34240;PMS7003;20503;50.200;19.508;2024-01-15T01:37:52;7;4;3
34240;PMS7003;20503;50.200;19.508;2024-01-15T01:38:53;6;5;2
34240;PMS7003;20503;50.200;19.508;2024-01-15T01:39:54;6;5;2
34240;PMS7003;20503;50.200;19.508;2024-01-15T01:40:56;7;3;2
34240;PMS7003;20503;50.200;19.508;2024-01-15T01:41:57;8;4;3
34240;PMS7003;20503;50.200;19.508;2024-01-15T01:42:58;9;4;3
34240;PMS7003;20503;50.200;19.508;2024-01-15T01:44:00;9;4;3
34240;PMS7003;20503;50.200;19.508;2024-01-15T01:45:01;6;4;3
34240;PMS7003;20503;50.200;19.508;2024-01-15T01:46:03;6;4;2
34240;PMS7003;20503;50.200;19.508;2024-01-15T01:47:04;5;4;3
34240;PMS7003;20503;50.200;19.508;2024-01-15T01:48:07;6;5;3
34240;PMS7003;20503;50.200;19.508;2024-01-15T01:49:09;8;6;3
34240;PMS7003;20503;50.200;19.508;2024-01-15T01:50:10;4;4;3
34240;PMS7003;20503;50.200;19.508;2024-01-15T01:51:13;6;3;2
34240;PMS7003;20503;50.200;19.508;2024-01-15T01:52:15;6;4;2
34240;PMS7003;20503;50.200;19.508;2024-01-15T01:53:17;6;4;2
34240;PMS7003;20503;50.200;19.508;2024-01-15T01:54:19;7;3;3
34240;PMS7003;20503;50.200;19.508;2024-01-15T01:55:21;7;3;3
34240;PMS7003;20503;50.200;19.508;2024-01-15T01:56:28;6;3;2
34240;PMS7003;20503;50.200;19.508;2024-01-15T01:57:47;8;5;3
34240;PMS7003;20503;50.200;19.508;2024-01-15T01:58:49;5;3;2
34240;PMS7003;20503;50.200;19.508;2024-01-15T01:59:51;9;4;3
34240;PMS7003;20503;50.200;19.508;2024-01-15T02:00:54;8;3;2
34240;PMS7003;20503;50.200;19.508;2024-01-15T02:02:03;4;3;2
34240;PMS7003;20503;50.200;19.508;2024-01-15T02:03:04;8;3;2
34240;PMS7003;20503;50.200;19.508;2024-01-15T02:04:06;8;3;2
34240;PMS7003;20503;50.200;19.508;2024-01-15T02:05:09;7;4;3
34240;PMS7003;20503;50.200;19.508;2024-01-15T02:06:11;7;4;3
34240;PMS7003;20503;50.200;19.508;2024-01-15T02:07:12;9;4;2
34240;PMS7003;20503;50.200;19.508;2024-01-15T02:08:28;5;3;2
34240;PMS7003;20503;50.200;19.508;2024-01-15T02:09:30;5;3;2
34240;PMS7003;20503;50.200;19.508;2024-01-15T02:10:32;5;3;2
34240;PMS7003;20503;50.200;19.508;2024-01-15T02:11:33;5;3;2
34240;PMS7003;20503;50.200;19.508;2024-01-15T02:12:35;7;3;2
34240;PMS7003;20503;50.200;19.508;2024-01-15T02:13:37;5;3;1
34240;PMS7003;20503;50.200;19.508;2024-01-15T02:14:41;5;3;1
34240;PMS7003;20503;50.200;19.508;2024-01-15T02:15:42;6;4;2
34240;PMS7003;20503;50.200;19.508;2024-01-15T02:16:47;7;4;2
34240;PMS7003;20503;50.200;19.508;2024-01-15T02:19:00;9;4;3
34240;PMS7003;20503;50.200;19.508;2024-01-15T02:20:01;6;3;2
34240;PMS7003;20503;50.200;19.508;2024-01-15T02:21:03;5;3;2
34240;PMS7003;20503;50.200;19.508;2024-01-15T02:22:05;5;3;2
34240;PMS7003;20503;50.200;19.508;2024-01-15T02:23:10;5;2;1
34240;PMS7003;20503;50.200;19.508;2024-01-15T02:24:15;5;2;1
34240;PMS7003;20503;50.200;19.508;2024-01-15T02:25:17;5;2;1
34240;PMS7003;20503;50.200;19.508;2024-01-15T02:26:19;5;2;1
34240;PMS7003;20503;50.200;19.508;2024-01-15T02:27:22;5;2;1
34240;PMS7003;20503;50.200;19.508;2024-01-15T02:28:23;7;2;1
34240;PMS7003;20503;50.200;19.508;2024-01-15T02:29:24;7;2;1
34240;PMS7003;20503;50.200;19.508;2024-01-15T02:30:26;7;2;1
34240;PMS7003;20503;50.200;19.508;2024-01-15T02:31:29;6;3;2
34240;PMS7003;20503;50.200;19.508;2024-01-15T02:32:43;8;3;1
34240;PMS7003;20503;50.200;19.508;2024-01-15T02:33:46;5;3;2
34240;PMS7003;20503;50.200;19.508;2024-01-15T02:34:48;5;3;2
34240;PMS7003;20503;50.200;19.508;2024-01-15T02:36:12;6;3;1
34240;PMS7003;20503;50.200;19.508;2024-01-15T02:37:14;6;3;1
34240;PMS7003;20503;50.200;19.508;2024-01-15T02:38:15;6;3;1
34240;PMS7003;20503;50.200;19.508;2024-01-15T02:39:17;3;2;1
34240;PMS7003;20503;50.200;19.508;2024-01-15T02:40:18;3;2;1
34240;PMS7003;20503;50.200;19.508;2024-01-15T02:41:19;3;2;1
34240;PMS7003;20503;50.200;19.508;2024-01-15T02:42:20;5;3;1
34240;PMS7003;20503;50.200;19.508;2024-01-15T02:43:22;5;3;1
34240;PMS7003;20503;50.200;19.508;2024-01-15T02:44:24;5;3;1
34240;PMS7003;20503;50.200;19.508;2024-01-15T02:45:26;6;3;1
34240;PMS7003;20503;50.200;19.508;2024-01-15T02:46:28;3;3;1
34240;PMS7003;20503;50.200;19.508;2024-01-15T02:47:29;3;1;1
34240;PMS7003;20503;50.200;19.508;2024-01-15T02:48:31;3;1;1
34240;PMS7003;20503;50.200;19.508;2024-01-15T02:49:33;4;3;1
34240;PMS7003;20503;50.200;19.508;2024-01-15T02:50:34;6;2;2
34240;PMS7003;20503;50.200;19.508;2024-01-15T02:51:35;6;2;2
34240;PMS7003;20503;50.200;19.508;2024-01-15T02:52:37;4;1;1
34240;PMS7003;20503;50.200;19.508;2024-01-15T02:53:38;3;3;1
34240;PMS7003;20503;50.200;19.508;2024-01-15T02:54:39;6;3;2
34240;PMS7003;20503;50.200;19.508;2024-01-15T02:55:41;6;3;2
34240;PMS7003;20503;50.200;19.508;2024-01-15T02:56:43;4;1;1
34240;PMS7003;20503;50.200;19.508;2024-01-15T02:57:44;4;1;1
34240;PMS7003;20503;50.200;19.508;2024-01-15T02:58:46;3;2;1
34240;PMS7003;20503;50.200;19.508;2024-01-15T02:59:47;4;1;0
34240;PMS7003;20503;50.200;19.508;2024-01-15T03:00:48;4;2;1
34240;PMS7003;20503;50.200;19.508;2024-01-15T03:01:49;3;2;1
34240;PMS7003;20503;50.200;19.508;2024-01-15T03:02:51;5;2;1
34240;PMS7003;20503;50.200;19.508;2024-01-15T03:03:52;5;4;2
34240;PMS7003;20503;50.200;19.508;2024-01-15T03:04:59;4;2;1
34240;PMS7003;20503;50.200;19.508;2024-01-15T03:06:01;4;2;1
34240;PMS7003;20503;50.200;19.508;2024-01-15T03:07:03;3;2;0
34240;PMS7003;20503;50.200;19.508;2024-01-15T03:08:05;6;2;1
34240;PMS7003;20503;50.200;19.508;2024-01-15T03:09:07;6;2;1
34240;PMS7003;20503;50.200;19.508;2024-01-15T03:10:09;6;2;2
34240;PMS7003;20503;50.200;19.508;2024-01-15T03:11:13;6;2;2
34240;PMS7003;20503;50.200;19.508;2024-01-15T03:12:17;6;2;1
34240;PMS7003;20503;50.200;19.508;2024-01-15T03:13:19;3;3;1
34240;PMS7003;20503;50.200;19.508;2024-01-15T03:14:20;4;2;1
34240;PMS7003;20503;50.200;19.508;2024-01-15T03:15:26;4;2;1
34240;PMS7003;20503;50.200;19.508;2024-01-15T03:16:28;5;3;2
34240;PMS7003;20503;50.200;19.508;2024-01-15T03:17:29;3;2;1
34240;PMS7003;20503;50.200;19.508;2024-01-15T03:18:30;3;2;1
34240;PMS7003;20503;50.200;19.508;2024-01-15T03:19:34;4;1;1
34240;PMS7003;20503;50.200;19.508;2024-01-15T03:20:54;5;1;0
34240;PMS7003;20503;50.200;19.508;2024-01-15T03:21:55;2;1;0
34240;PMS7003;20503;50.200;19.508;2024-01-15T03:22:57;5;1;0
34240;PMS7003;20503;50.200;19.508;2024-01-15T03:23:58;5;1;0
34240;PMS7003;20503;50.200;19.508;2024-01-15T03:24:59;3;1;0
34240;PMS7003;20503;50.200;19.508;2024-01-15T03:26:22;1;0;0
34240;PMS7003;20503;50.200;19.508;2024-01-15T03:27:25;1;0;0
34240;PMS7003;20503;50.200;19.508;2024-01-15T03:28:26;5;2;1
34240;PMS7003;20503;50.200;19.508;2024-01-15T03:29:28;5;2;1
34240;PMS7003;20503;50.200;19.508;2024-01-15T03:30:43;4;1;0
34240;PMS7003;20503;50.200;19.508;2024-01-15T03:31:44;4;1;0
34240;PMS7003;20503;50.200;19.508;2024-01-15T03:32:45;4;2;1
34240;PMS7003;20503;50.200;19.508;2024-01-15T03:33:50;2;2;1
34240;PMS7003;20503;50.200;19.508;2024-01-15T03:34:51;2;2;1
34240;PMS7003;20503;50.200;19.508;2024-01-15T03:35:53;4;2;1
34240;PMS7003;20503;50.200;19.508;2024-01-15T03:36:55;4;2;1
34240;PMS7003;20503;50.200;19.508;2024-01-15T03:38:15;2;1;0
34240;PMS7003;20503;50.200;19.508;2024-01-15T03:39:16;2;1;0
34240;PMS7003;20503;50.200;19.508;2024-01-15T03:40:17;2;1;0
34240;PMS7003;20503;50.200;19.508;2024-01-15T03:41:19;3;2;1
34240;PMS7003;20503;50.200;19.508;2024-01-15T03:42:20;3;2;1
34240;PMS7003;20503;50.200;19.508;2024-01-15T03:43:21;4;3;1
34240;PMS7003;20503;50.200;19.508;2024-01-15T03:44:23;4;3;1
34240;PMS7003;20503;50.200;19.508;2024-01-15T03:45:24;2;2;0
34240;PMS7003;20503;50.200;19.508;2024-01-15T03:46:26;4;3;2
34240;PMS7003;20503;50.200;19.508;2024-01-15T03:47:28;5;3;2
34240;PMS7003;20503;50.200;19.508;2024-01-15T03:48:40;6;3;1
34240;PMS7003;20503;50.200;19.508;2024-01-15T03:49:41;3;2;1
34240;PMS7003;20503;50.200;19.508;2024-01-15T03:50:43;6;2;1
34240;PMS7003;20503;50.200;19.508;2024-01-15T03:51:44;6;2;1
34240;PMS7003;20503;50.200;19.508;2024-01-15T03:52:46;3;3;1
34240;PMS7003;20503;50.200;19.508;2024-01-15T03:53:48;3;3;1
34240;PMS7003;20503;50.200;19.508;2024-01-15T03:54:49;3;2;0
34240;PMS7003;20503;50.200;19.508;2024-01-15T03:55:51;3;2;0
34240;PMS7003;20503;50.200;19.508;2024-01-15T03:57:13;10;2;1
34240;PMS7003;20503;50.200;19.508;2024-01-15T03:58:15;10;2;1
34240;PMS7003;20503;50.200;19.508;2024-01-15T03:59:17;4;2;1
34240;PMS7003;20503;50.200;19.508;2024-01-15T04:00:19;4;2;1
34240;PMS7003;20503;50.200;19.508;2024-01-15T04:01:20;4;2;1
34240;PMS7003;20503;50.200;19.508;2024-01-15T04:02:21;3;1;1
34240;PMS7003;20503;50.200;19.508;2024-01-15T04:03:23;5;1;0
34240;PMS7003;20503;50.200;19.508;2024-01-15T04:04:27;6;3;2
34240;PMS7003;20503;50.200;19.508;2024-01-15T04:05:28;6;3;2
34240;PMS7003;20503;50.200;19.508;2024-01-15T04:06:30;6;2;2
34240;PMS7003;20503;50.200;19.508;2024-01-15T04:07:31;5;2;0
34240;PMS7003;20503;50.200;19.508;2024-01-15T04:08:58;3;2;1
34240;PMS7003;20503;50.200;19.508;2024-01-15T04:09:59;4;2;1
34240;PMS7003;20503;50.200;19.508;2024-01-15T04:11:01;4;2;1
34240;PMS7003;20503;50.200;19.508;2024-01-15T04:12:02;4;2;1
34240;PMS7003;20503;50.200;19.508;2024-01-15T04:13:04;5;2;1
34240;PMS7003;20503;50.200;19.508;2024-01-15T04:14:27;4;2;1
34240;PMS7003;20503;50.200;19.508;2024-01-15T04:15:29;5;4;2
34240;PMS7003;20503;50.200;19.508;2024-01-15T04:16:32;5;4;2
34240;PMS7003;20503;50.200;19.508;2024-01-15T04:17:49;4;2;0
34240;PMS7003;20503;50.200;19.508;2024-01-15T04:18:50;3;2;1
34240;PMS7003;20503;50.200;19.508;2024-01-15T04:19:52;3;2;1
34240;PMS7003;20503;50.200;19.508;2024-01-15T04:20:53;4;3;1
34240;PMS7003;20503;50.200;19.508;2024-01-15T04:21:55;4;3;1
34240;PMS7003;20503;50.200;19.508;2024-01-15T04:22:56;4;3;1
34240;PMS7003;20503;50.200;19.508;2024-01-15T04:23:57;5;2;1
34240;PMS7003;20503;50.200;19.508;2024-01-15T04:25:00;5;2;1
34240;PMS7003;20503;50.200;19.508;2024-01-15T04:26:20;4;2;1
34240;PMS7003;20503;50.200;19.508;2024-01-15T04:27:22;4;2;1
34240;PMS7003;20503;50.200;19.508;2024-01-15T04:28:48;2;1;0
34240;PMS7003;20503;50.200;19.508;2024-01-15T04:29:50;2;1;0
34240;PMS7003;20503;50.200;19.508;2024-01-15T04:30:51;3;2;0
34240;PMS7003;20503;50.200;19.508;2024-01-15T04:31:53;3;2;0
34240;PMS7003;20503;50.200;19.508;2024-01-15T04:32:54;4;2;1
34240;PMS7003;20503;50.200;19.508;2024-01-15T04:33:55;6;2;1
34240;PMS7003;20503;50.200;19.508;2024-01-15T04:34:57;6;2;1
34240;PMS7003;20503;50.200;19.508;2024-01-15T04:36:01;3;1;0
34240;PMS7003;20503;50.200;19.508;2024-01-15T04:37:04;3;1;0
34240;PMS7003;20503;50.200;19.508;2024-01-15T04:38:16;8;2;1
34240;PMS7003;20503;50.200;19.508;2024-01-15T04:39:18;8;2;1
34240;PMS7003;20503;50.200;19.508;2024-01-15T04:40:19;4;1;1
34240;PMS7003;20503;50.200;19.508;2024-01-15T04:41:20;6;2;1
34240;PMS7003;20503;50.200;19.508;2024-01-15T04:42:21;6;2;1
34240;PMS7003;20503;50.200;19.508;2024-01-15T04:43:49;4;3;1
34240;PMS7003;20503;50.200;19.508;2024-01-15T04:44:51;4;3;1
34240;PMS7003;20503;50.200;19.508;2024-01-15T04:45:58;3;1;1
34240;PMS7003;20503;50.200;19.508;2024-01-15T04:47:01;3;1;1
34240;PMS7003;20503;50.200;19.508;2024-01-15T04:48:02;3;1;0
34240;PMS7003;20503;50.200;19.508;2024-01-15T04:49:05;3;1;0
34240;PMS7003;20503;50.200;19.508;2024-01-15T04:50:06;2;0;0
34240;PMS7003;20503;50.200;19.508;2024-01-15T04:51:08;2;0;0
34240;PMS7003;20503;50.200;19.508;2024-01-15T04:52:10;5;1;1
34240;PMS7003;20503;50.200;19.508;2024-01-15T04:53:11;5;1;1
34240;PMS7003;20503;50.200;19.508;2024-01-15T04:54:27;2;0;0
34240;PMS7003;20503;50.200;19.508;2024-01-15T04:55:55;2;0;0
34240;PMS7003;20503;50.200;19.508;2024-01-15T04:56:56;2;0;0
34240;PMS7003;20503;50.200;19.508;2024-01-15T04:57:58;4;0;0
34240;PMS7003;20503;50.200;19.508;2024-01-15T04:59:01;4;0;0
34240;PMS7003;20503;50.200;19.508;2024-01-15T05:00:04;1;0;0
34240;PMS7003;20503;50.200;19.508;2024-01-15T05:01:07;1;0;0
34240;PMS7003;20503;50.200;19.508;2024-01-15T05:02:20;2;0;0
34240;PMS7003;20503;50.200;19.508;2024-01-15T05:03:48;1;0;0
34240;PMS7003;20503;50.200;19.508;2024-01-15T05:04:50;1;0;0
34240;PMS7003;20503;50.200;19.508;2024-01-15T05:05:51;2;1;0
34240;PMS7003;20503;50.200;19.508;2024-01-15T05:06:53;2;1;0
34240;PMS7003;20503;50.200;19.508;2024-01-15T05:07:54;2;1;0
34240;PMS7003;20503;50.200;19.508;2024-01-15T05:08:57;2;0;0
34240;PMS7003;20503;50.200;19.508;2024-01-15T05:09:58;3;1;0
34240;PMS7003;20503;50.200;19.508;2024-01-15T05:10:59;2;1;0
34240;PMS7003;20503;50.200;19.508;2024-01-15T05:12:01;2;1;0
34240;PMS7003;20503;50.200;19.508;2024-01-15T05:13:03;5;2;0
34240;PMS7003;20503;50.200;19.508;2024-01-15T05:14:04;5;2;0
34240;PMS7003;20503;50.200;19.508;2024-01-15T05:15:06;5;1;1
34240;PMS7003;20503;50.200;19.508;2024-01-15T05:16:07;5;1;1
34240;PMS7003;20503;50.200;19.508;2024-01-15T05:17:35;3;1;0
34240;PMS7003;20503;50.200;19.508;2024-01-15T05:18:44;2;1;0
34240;PMS7003;20503;50.200;19.508;2024-01-15T05:19:45;4;2;0
34240;PMS7003;20503;50.200;19.508;2024-01-15T05:20:46;4;1;0
34240;PMS7003;20503;50.200;19.508;2024-01-15T05:21:47;4;1;0
34240;PMS7003;20503;50.200;19.508;2024-01-15T05:22:48;3;0;0
34240;PMS7003;20503;50.200;19.508;2024-01-15T05:23:50;3;0;0
34240;PMS7003;20503;50.200;19.508;2024-01-15T05:24:51;6;1;0
34240;PMS7003;20503;50.200;19.508;2024-01-15T05:25:52;6;1;0
34240;PMS7003;20503;50.200;19.508;2024-01-15T05:26:53;2;1;0
34240;PMS7003;20503;50.200;19.508;2024-01-15T05:27:55;3;2;1
34240;PMS7003;20503;50.200;19.508;2024-01-15T05:28:56;3;2;1
34240;PMS7003;20503;50.200;19.508;2024-01-15T05:30:17;2;0;0
34240;PMS7003;20503;50.200;19.508;2024-01-15T05:31:19;2;0;0
34240;PMS7003;20503;50.200;19.508;2024-01-15T05:32:21;3;2;0
34240;PMS7003;20503;50.200;19.508;2024-01-15T05:33:22;0;0;0
34240;PMS7003;20503;50.200;19.508;2024-01-15T05:34:24;4;0;0
34240;PMS7003;20503;50.200;19.508;2024-01-15T05:35:26;4;1;0
34240;PMS7003;20503;50.200;19.508;2024-01-15T05:36:27;4;1;0
34240;PMS7003;20503;50.200;19.508;2024-01-15T05:37:28;2;2;0
34240;PMS7003;20503;50.200;19.508;2024-01-15T05:38:46;3;2;1
34240;PMS7003;20503;50.200;19.508;2024-01-15T05:40:05;2;1;0
34240;PMS7003;20503;50.200;19.508;2024-01-15T05:41:24;3;0;0
34240;PMS7003;20503;50.200;19.508;2024-01-15T05:42:26;3;0;0
34240;PMS7003;20503;50.200;19.508;2024-01-15T05:43:42;3;0;0
34240;PMS7003;20503;50.200;19.508;2024-01-15T05:44:52;5;0;0
34240;PMS7003;20503;50.200;19.508;2024-01-15T05:45:54;5;0;0
34240;PMS7003;20503;50.200;19.508;2024-01-15T05:46:56;3;1;0
34240;PMS7003;20503;50.200;19.508;2024-01-15T05:47:57;3;1;0
34240;PMS7003;20503;50.200;19.508;2024-01-15T05:48:59;4;2;0
34240;PMS7003;20503;50.200;19.508;2024-01-15T05:50:00;4;2;0
34240;PMS7003;20503;50.200;19.508;2024-01-15T05:51:04;3;1;0
34240;PMS7003;20503;50.200;19.508;2024-01-15T05:52:30;2;1;1
34240;PMS7003;20503;50.200;19.508;2024-01-15T05:53:32;2;1;0
34240;PMS7003;20503;50.200;19.508;2024-01-15T05:54:34;2;1;0
34240;PMS7003;20503;50.200;19.508;2024-01-15T05:55:36;5;2;1
34240;PMS7003;20503;50.200;19.508;2024-01-15T05:56:58;3;1;0
34240;PMS7003;20503;50.200;19.508;2024-01-15T05:58:00;3;1;0
34240;PMS7003;20503;50.200;19.508;2024-01-15T05:59:01;5;2;0
34240;PMS7003;20503;50.200;19.508;2024-01-15T06:00:05;5;2;0
34240;PMS7003;20503;50.200;19.508;2024-01-15T06:01:07;5;2;0
34240;PMS7003;20503;50.200;19.508;2024-01-15T06:02:08;4;1;0
34240;PMS7003;20503;50.200;19.508;2024-01-15T06:03:09;4;1;0
34240;PMS7003;20503;50.200;19.508;2024-01-15T06:04:11;6;2;0
34240;PMS7003;20503;50.200;19.508;2024-01-15T06:05:12;7;3;1
34240;PMS7003;20503;50.200;19.508;2024-01-15T06:06:14;10;8;6
34240;PMS7003;20503;50.200;19.508;2024-01-15T06:07:15;10;8;6
34240;PMS7003;20503;50.200;19.508;2024-01-15T06:08:17;20;16;11
34240;PMS7003;20503;50.200;19.508;2024-01-15T06:09:30;9;6;5
34240;PMS7003;20503;50.200;19.508;2024-01-15T06:10:32;11;8;5
34240;PMS7003;20503;50.200;19.508;2024-01-15T06:11:34;11;8;5
34240;PMS7003;20503;50.200;19.508;2024-01-15T06:12:35;5;3;1
34240;PMS7003;20503;50.200;19.508;2024-01-15T06:13:36;8;4;2
34240;PMS7003;20503;50.200;19.508;2024-01-15T06:14:37;8;4;2
34240;PMS7003;20503;50.200;19.508;2024-01-15T06:15:39;7;3;1
34240;PMS7003;20503;50.200;19.508;2024-01-15T06:16:40;7;3;1
34240;PMS7003;20503;50.200;19.508;2024-01-15T06:17:42;4;2;1
34240;PMS7003;20503;50.200;19.508;2024-01-15T06:18:44;5;4;2
34240;PMS7003;20503;50.200;19.508;2024-01-15T06:19:45;6;3;2
34240;PMS7003;20503;50.200;19.508;2024-01-15T06:20:46;3;2;0
34240;PMS7003;20503;50.200;19.508;2024-01-15T06:21:47;3;2;0
34240;PMS7003;20503;50.200;19.508;2024-01-15T06:22:51;3;2;0
34240;PMS7003;20503;50.200;19.508;2024-01-15T06:23:52;3;2;0
34240;PMS7003;20503;50.200;19.508;2024-01-15T06:25:13;3;1;0
34240;PMS7003;20503;50.200;19.508;2024-01-15T06:26:14;1;1;0
34240;PMS7003;20503;50.200;19.508;2024-01-15T06:27:15;6;2;0
34240;PMS7003;20503;50.200;19.508;2024-01-15T06:28:17;4;1;0
34240;PMS7003;20503;50.200;19.508;2024-01-15T06:29:18;4;1;0
34240;PMS7003;20503;50.200;19.508;2024-01-15T06:30:20;2;1;0
34240;PMS7003;20503;50.200;19.508;2024-01-15T06:31:21;2;1;0
34240;PMS7003;20503;50.200;19.508;2024-01-15T06:32:24;6;1;0
34240;PMS7003;20503;50.200;19.508;2024-01-15T06:33:26;4;2;0
34240;PMS7003;20503;50.200;19.508;2024-01-15T06:34:27;4;1;1
34240;PMS7003;20503;50.200;19.508;2024-01-15T06:35:52;2;0;0
34240;PMS7003;20503;50.200;19.508;2024-01-15T06:36:54;2;0;0
34240;PMS7003;20503;50.200;19.508;2024-01-15T06:37:55;4;1;0
34240;PMS7003;20503;50.200;19.508;2024-01-15T06:38:57;3;1;0
34240;PMS7003;20503;50.200;19.508;2024-01-15T06:39:58;2;1;0
34240;PMS7003;20503;50.200;19.508;2024-01-15T06:41:00;2;1;0
34240;PMS7003;20503;50.200;19.508;2024-01-15T06:42:01;4;1;0
34240;PMS7003;20503;50.200;19.508;2024-01-15T06:43:03;4;1;0
34240;PMS7003;20503;50.200;19.508;2024-01-15T06:44:05;3;1;0
34240;PMS7003;20503;50.200;19.508;2024-01-15T06:45:07;6;4;3
34240;PMS7003;20503;50.200;19.508;2024-01-15T06:46:28;10;7;5
34240;PMS7003;20503;50.200;19.508;2024-01-15T06:47:29;13;10;5
34240;PMS7003;20503;50.200;19.508;2024-01-15T06:48:33;13;10;5
34240;PMS7003;20503;50.200;19.508;2024-01-15T06:49:34;11;7;5
34240;PMS7003;20503;50.200;19.508;2024-01-15T06:50:36;8;5;3
34240;PMS7003;20503;50.200;19.508;2024-01-15T06:51:37;7;4;3
34240;PMS7003;20503;50.200;19.508;2024-01-15T06:52:58;7;5;3
34240;PMS7003;20503;50.200;19.508;2024-01-15T06:53:59;7;5;3
34240;PMS7003;20503;50.200;19.508;2024-01-15T06:55:09;9;3;2
34240;PMS7003;20503;50.200;19.508;2024-01-15T06:56:28;7;4;3
34240;PMS7003;20503;50.200;19.508;2024-01-15T06:57:30;13;7;4
34240;PMS7003;20503;50.200;19.508;2024-01-15T06:58:40;13;9;5
34240;PMS7003;20503;50.200;19.508;2024-01-15T06:59:42;9;6;4
34240;PMS7003;20503;50.200;19.508;2024-01-15T07:00:43;9;6;4
34240;PMS7003;20503;50.200;19.508;2024-01-15T07:01:45;5;3;2
34240;PMS7003;20503;50.200;19.508;2024-01-15T07:02:47;5;3;2